sensor_id;sensor_type;location;lat;lon;timestamp;pressure;altitude;pressure_sealevel;temperature;humidity
18678;BME280;9469;51.114;13.914;2023-03-26T00:02:14;97698.31;;;8.56;100.00
18678;BME280;9469;51.114;13.914;2023-03-26T00:07:21;97695.03;;;8.59;100.00
18678;BME280;9469;51.114;13.914;2023-03-26T00:12:28;97703.28;;;8.49;100.00
18678;BME280;9469;51.114;13.914;2023-03-26T00:17:36;97716.06;;;8.38;100.00
18678;BME280;9469;51.114;13.914;2023-03-26T00:22:41;97709.69;;;8.48;100.00
18678;BME280;9469;51.114;13.914;2023-03-26T00:27:49;97710.28;;;8.45;100.00
18678;BME280;9469;51.114;13.914;2023-03-26T00:32:57;97718.25;;;8.62;100.00
18678;BME280;9469;51.114;13.914;2023-03-26T00:38:03;97719.50;;;8.56;100.00
18678;BME280;9469;51.114;13.914;2023-03-26T00:43:09;97711.56;;;8.56;100.00
18678;BME280;9469;51.114;13.914;2023-03-26T00:48:24;97710.47;;;8.57;100.00
18678;BME280;9469;51.114;13.914;2023-03-26T00:53:47;97714.97;;;8.48;100.00
18678;BME280;9469;51.114;13.914;2023-03-26T00:58:54;97712.94;;;8.53;100.00
18678;BME280;9469;51.114;13.914;2023-03-26T01:04:22;97707.03;;;8.65;100.00
18678;BME280;9469;51.114;13.914;2023-03-26T01:09:34;97712.81;;;8.67;100.00
18678;BME280;9469;51.114;13.914;2023-03-26T01:14:44;97695.50;;;8.70;100.00
18678;BME280;9469;51.114;13.914;2023-03-26T01:19:59;97701.28;;;8.63;100.00
18678;BME280;9469;51.114;13.914;2023-03-26T01:25:10;97693.94;;;8.60;100.00
18678;BME280;9469;51.114;13.914;2023-03-26T01:30:22;97707.50;;;8.50;100.00
18678;BME280;9469;51.114;13.914;2023-03-26T01:35:37;97701.81;;;8.26;100.00
18678;BME280;9469;51.114;13.914;2023-03-26T01:40:51;97701.66;;;8.22;100.00
18678;BME280;9469;51.114;13.914;2023-03-26T01:46:01;97706.38;;;7.94;100.00
18678;BME280;9469;51.114;13.914;2023-03-26T01:51:08;97707.97;;;7.95;100.00
18678;BME280;9469;51.114;13.914;2023-03-26T01:56:19;97699.47;;;7.76;100.00
18678;BME280;9469;51.114;13.914;2023-03-26T02:01:38;97702.94;;;7.85;100.00
18678;BME280;9469;51.114;13.914;2023-03-26T02:06:49;97693.22;;;7.72;100.00
18678;BME280;9469;51.114;13.914;2023-03-26T02:12:03;97694.38;;;7.80;100.00
18678;BME280;9469;51.114;13.914;2023-03-26T02:17:10;97698.56;;;7.81;100.00
18678;BME280;9469;51.114;13.914;2023-03-26T02:22:16;97710.34;;;7.66;100.00
18678;BME280;9469;51.114;13.914;2023-03-26T02:27:25;97715.00;;;7.69;100.00
18678;BME280;9469;51.114;13.914;2023-03-26T02:32:30;97706.31;;;7.69;100.00
18678;BME280;9469;51.114;13.914;2023-03-26T02:37:37;97705.06;;;7.66;100.00
18678;BME280;9469;51.114;13.914;2023-03-26T02:42:51;97705.41;;;7.73;100.00
18678;BME280;9469;51.114;13.914;2023-03-26T02:47:57;97700.41;;;7.80;100.00
18678;BME280;9469;51.114;13.914;2023-03-26T02:53:23;97707.41;;;7.76;100.00
18678;BME280;9469;51.114;13.914;2023-03-26T02:59:07;97695.31;;;7.84;100.00
18678;BME280;9469;51.114;13.914;2023-03-26T03:04:18;97698.25;;;7.82;100.00
18678;BME280;9469;51.114;13.914;2023-03-26T03:09:23;97697.16;;;7.83;100.00
18678;BME280;9469;51.114;13.914;2023-03-26T03:14:59;97697.63;;;7.85;100.00
18678;BME280;9469;51.114;13.914;2023-03-26T03:20:06;97704.63;;;7.81;100.00
18678;BME280;9469;51.114;13.914;2023-03-26T03:25:13;97700.41;;;7.80;100.00
18678;BME280;9469;51.114;13.914;2023-03-26T03:30:25;97690.28;;;7.82;100.00
18678;BME280;9469;51.114;13.914;2023-03-26T03:35:45;97707.00;;;7.91;100.00
18678;BME280;9469;51.114;13.914;2023-03-26T03:40:53;97697.97;;;7.92;100.00
18678;BME280;9469;51.114;13.914;2023-03-26T03:46:04;97701.38;;;7.84;100.00
18678;BME280;9469;51.114;13.914;2023-03-26T03:51:18;97705.09;;;7.83;100.00
18678;BME280;9469;51.114;13.914;2023-03-26T03:56:41;97695.53;;;7.65;100.00
18678;BME280;9469;51.114;13.914;2023-03-26T04:02:09;97700.19;;;7.60;100.00
18678;BME280;9469;51.114;13.914;2023-03-26T04:07:24;97705.31;;;7.56;100.00
18678;BME280;9469;51.114;13.914;2023-03-26T04:12:40;97694.72;;;7.56;100.00
18678;BME280;9469;51.114;13.914;2023-03-26T04:17:53;97684.88;;;7.48;100.00
18678;BME280;9469;51.114;13.914;2023-03-26T04:22:58;97695.63;;;7.52;100.00
18678;BME280;9469;51.114;13.914;2023-03-26T04:28:06;97691.28;;;7.56;100.00
18678;BME280;9469;51.114;13.914;2023-03-26T04:33:28;97677.75;;;7.57;100.00
18678;BME280;9469;51.114;13.914;2023-03-26T04:38:39;97680.47;;;7.74;100.00
18678;BME280;9469;51.114;13.914;2023-03-26T04:43:47;97674.19;;;7.62;100.00
18678;BME280;9469;51.114;13.914;2023-03-26T04:49:03;97679.53;;;7.70;100.00
18678;BME280;9469;51.114;13.914;2023-03-26T04:54:09;97677.03;;;7.74;100.00
18678;BME280;9469;51.114;13.914;2023-03-26T04:59:34;97674.91;;;7.84;100.00
18678;BME280;9469;51.114;13.914;2023-03-26T05:04:47;97671.34;;;7.89;100.00
18678;BME280;9469;51.114;13.914;2023-03-26T05:09:56;97672.56;;;7.91;100.00
18678;BME280;9469;51.114;13.914;2023-03-26T05:15:27;97675.44;;;8.12;100.00
18678;BME280;9469;51.114;13.914;2023-03-26T05:20:44;97673.06;;;7.93;100.00
18678;BME280;9469;51.114;13.914;2023-03-26T05:25:50;97677.47;;;8.07;100.00
18678;BME280;9469;51.114;13.914;2023-03-26T05:30:58;97674.69;;;8.12;100.00
18678;BME280;9469;51.114;13.914;2023-03-26T05:36:12;97677.47;;;8.07;100.00
18678;BME280;9469;51.114;13.914;2023-03-26T05:41:22;97680.25;;;8.02;100.00
18678;BME280;9469;51.114;13.914;2023-03-26T05:46:27;97683.22;;;8.09;100.00
18678;BME280;9469;51.114;13.914;2023-03-26T05:51:36;97687.63;;;8.22;100.00
18678;BME280;9469;51.114;13.914;2023-03-26T05:57:04;97687.75;;;8.17;100.00
18678;BME280;9469;51.114;13.914;2023-03-26T06:02:30;97683.94;;;8.31;100.00
18678;BME280;9469;51.114;13.914;2023-03-26T06:08:02;97695.31;;;8.32;100.00
18678;BME280;9469;51.114;13.914;2023-03-26T06:13:11;97697.19;;;8.40;100.00
18678;BME280;9469;51.114;13.914;2023-03-26T06:18:18;97699.81;;;8.31;100.00
18678;BME280;9469;51.114;13.914;2023-03-26T06:23:47;97692.69;;;8.49;100.00
18678;BME280;9469;51.114;13.914;2023-03-26T06:29:12;97691.13;;;8.48;100.00
18678;BME280;9469;51.114;13.914;2023-03-26T06:34:28;97686.75;;;8.60;100.00
18678;BME280;9469;51.114;13.914;2023-03-26T06:39:37;97691.41;;;8.55;100.00
18678;BME280;9469;51.114;13.914;2023-03-26T06:44:54;97683.88;;;9.34;100.00
18678;BME280;9469;51.114;13.914;2023-03-26T06:50:11;97684.88;;;9.04;100.00
18678;BME280;9469;51.114;13.914;2023-03-26T06:55:42;97687.16;;;10.44;94.00
18678;BME280;9469;51.114;13.914;2023-03-26T07:01:12;97678.66;;;13.37;83.29
18678;BME280;9469;51.114;13.914;2023-03-26T07:06:49;97679.00;;;14.14;77.82
18678;BME280;9469;51.114;13.914;2023-03-26T07:12:16;97684.47;;;12.20;82.79
18678;BME280;9469;51.114;13.914;2023-03-26T07:17:36;97681.84;;;11.63;86.66
18678;BME280;9469;51.114;13.914;2023-03-26T07:22:57;97688.63;;;11.16;88.18
18678;BME280;9469;51.114;13.914;2023-03-26T07:28:19;97681.13;;;10.76;90.09
18678;BME280;9469;51.114;13.914;2023-03-26T07:33:51;97672.84;;;10.57;90.83
18678;BME280;9469;51.114;13.914;2023-03-26T07:39:31;97679.84;;;10.62;90.88
18678;BME280;9469;51.114;13.914;2023-03-26T07:45:01;97671.38;;;11.34;87.71
18678;BME280;9469;51.114;13.914;2023-03-26T07:50:29;97678.31;;;11.26;86.10
18678;BME280;9469;51.114;13.914;2023-03-26T07:55:42;97661.78;;;11.90;83.13
18678;BME280;9469;51.114;13.914;2023-03-26T08:01:19;97666.53;;;11.15;87.09
18678;BME280;9469;51.114;13.914;2023-03-26T08:06:33;97669.25;;;11.72;84.23
18678;BME280;9469;51.114;13.914;2023-03-26T08:12:11;97676.91;;;10.96;86.08
18678;BME280;9469;51.114;13.914;2023-03-26T08:17:28;97663.97;;;11.07;85.51
18678;BME280;9469;51.114;13.914;2023-03-26T08:22:39;97659.53;;;11.11;87.06
18678;BME280;9469;51.114;13.914;2023-03-26T08:27:53;97659.19;;;11.00;87.72
18678;BME280;9469;51.114;13.914;2023-03-26T08:33:13;97666.91;;;10.52;89.05
18678;BME280;9469;51.114;13.914;2023-03-26T08:38:20;97673.06;;;10.23;89.47
18678;BME280;9469;51.114;13.914;2023-03-26T08:43:44;97667.44;;;10.45;90.81
18678;BME280;9469;51.114;13.914;2023-03-26T09:00:36;97660.00;;;10.59;88.05
18678;BME280;9469;51.114;13.914;2023-03-26T09:06:14;97657.66;;;10.37;88.17
18678;BME280;9469;51.114;13.914;2023-03-26T09:11:50;97647.53;;;10.31;87.16
18678;BME280;9469;51.114;13.914;2023-03-26T09:17:27;97649.63;;;10.66;88.85
18678;BME280;9469;51.114;13.914;2023-03-26T09:22:56;97646.81;;;10.63;87.09
18678;BME280;9469;51.114;13.914;2023-03-26T09:33:55;97644.31;;;10.46;88.88
18678;BME280;9469;51.114;13.914;2023-03-26T09:39:08;97641.91;;;10.32;88.89
18678;BME280;9469;51.114;13.914;2023-03-26T09:50:14;97631.72;;;10.75;85.97
18678;BME280;9469;51.114;13.914;2023-03-26T09:55:47;97630.50;;;11.06;85.78
18678;BME280;9469;51.114;13.914;2023-03-26T10:00:57;97621.19;;;10.79;85.06
18678;BME280;9469;51.114;13.914;2023-03-26T10:06:23;97620.50;;;11.03;83.79
18678;BME280;9469;51.114;13.914;2023-03-26T10:11:58;97604.59;;;11.63;81.15
18678;BME280;9469;51.114;13.914;2023-03-26T10:17:21;97596.69;;;12.82;75.64
18678;BME280;9469;51.114;13.914;2023-03-26T10:22:44;97592.03;;;12.24;75.88
18678;BME280;9469;51.114;13.914;2023-03-26T10:27:58;97580.53;;;11.60;77.25
18678;BME280;9469;51.114;13.914;2023-03-26T10:33:17;97575.34;;;11.75;77.75
18678;BME280;9469;51.114;13.914;2023-03-26T10:38:43;97561.38;;;12.30;74.29
18678;BME280;9469;51.114;13.914;2023-03-26T10:44:08;97545.50;;;12.77;73.02
18678;BME280;9469;51.114;13.914;2023-03-26T10:49:38;97529.41;;;12.89;71.49
18678;BME280;9469;51.114;13.914;2023-03-26T10:54:54;97537.38;;;13.17;72.30
18678;BME280;9469;51.114;13.914;2023-03-26T11:00:12;97525.69;;;12.93;68.79
18678;BME280;9469;51.114;13.914;2023-03-26T11:05:38;97518.69;;;13.17;67.87
18678;BME280;9469;51.114;13.914;2023-03-26T11:10:52;97514.75;;;13.77;67.70
18678;BME280;9469;51.114;13.914;2023-03-26T11:16:03;97500.28;;;14.16;66.08
18678;BME280;9469;51.114;13.914;2023-03-26T11:21:13;97490.78;;;13.14;67.09
18678;BME280;9469;51.114;13.914;2023-03-26T11:26:29;97495.03;;;13.65;64.34
18678;BME280;9469;51.114;13.914;2023-03-26T11:31:50;97487.75;;;13.31;65.46
18678;BME280;9469;51.114;13.914;2023-03-26T11:37:02;97486.25;;;12.87;67.50
18678;BME280;9469;51.114;13.914;2023-03-26T11:42:13;97471.56;;;13.24;67.43
18678;BME280;9469;51.114;13.914;2023-03-26T11:47:23;97465.41;;;12.46;67.24
18678;BME280;9469;51.114;13.914;2023-03-26T11:52:30;97469.00;;;12.38;67.15
18678;BME280;9469;51.114;13.914;2023-03-26T11:57:43;97457.84;;;12.20;68.06
18678;BME280;9469;51.114;13.914;2023-03-26T12:02:55;97466.97;;;12.93;68.22
18678;BME280;9469;51.114;13.914;2023-03-26T12:08:18;97472.25;;;12.90;66.80
18678;BME280;9469;51.114;13.914;2023-03-26T12:13:33;97461.81;;;13.01;68.11
18678;BME280;9469;51.114;13.914;2023-03-26T12:18:41;97452.47;;;12.91;68.19
18678;BME280;9469;51.114;13.914;2023-03-26T12:23:55;97451.56;;;12.87;68.55
18678;BME280;9469;51.114;13.914;2023-03-26T12:29:09;97449.06;;;12.94;69.71
18678;BME280;9469;51.114;13.914;2023-03-26T12:34:16;97451.75;;;12.94;69.05
18678;BME280;9469;51.114;13.914;2023-03-26T12:39:31;97445.97;;;12.92;69.57
18678;BME280;9469;51.114;13.914;2023-03-26T12:45:05;97450.22;;;12.93;68.24
18678;BME280;9469;51.114;13.914;2023-03-26T12:50:12;97447.13;;;12.91;66.96
18678;BME280;9469;51.114;13.914;2023-03-26T12:55:41;97449.88;;;12.79;67.81
18678;BME280;9469;51.114;13.914;2023-03-26T13:00:55;97456.66;;;12.76;68.78
18678;BME280;9469;51.114;13.914;2023-03-26T13:06:19;97450.13;;;12.74;68.56
18678;BME280;9469;51.114;13.914;2023-03-26T13:11:32;97440.28;;;12.93;68.77
18678;BME280;9469;51.114;13.914;2023-03-26T13:16:46;97437.19;;;12.76;68.30
18678;BME280;9469;51.114;13.914;2023-03-26T13:22:03;97429.19;;;12.76;67.32
18678;BME280;9469;51.114;13.914;2023-03-26T13:27:32;97420.31;;;12.87;67.73
18678;BME280;9469;51.114;13.914;2023-03-26T13:32:50;97408.88;;;12.87;68.56
18678;BME280;9469;51.114;13.914;2023-03-26T13:38:04;97408.72;;;12.64;68.39
18678;BME280;9469;51.114;13.914;2023-03-26T13:43:28;97391.66;;;13.00;68.05
18678;BME280;9469;51.114;13.914;2023-03-26T13:48:42;97388.31;;;12.87;68.72
18678;BME280;9469;51.114;13.914;2023-03-26T13:53:55;97380.75;;;12.74;69.48
18678;BME280;9469;51.114;13.914;2023-03-26T13:59:07;97390.47;;;12.82;70.99
18678;BME280;9469;51.114;13.914;2023-03-26T14:04:20;97390.94;;;13.03;71.60
18678;BME280;9469;51.114;13.914;2023-03-26T14:09:38;97382.81;;;12.80;71.50
18678;BME280;9469;51.114;13.914;2023-03-26T14:14:49;97386.22;;;13.12;71.62
18678;BME280;9469;51.114;13.914;2023-03-26T14:20:25;97381.06;;;13.04;72.39
18678;BME280;9469;51.114;13.914;2023-03-26T14:25:53;97380.31;;;13.38;70.70
18678;BME280;9469;51.114;13.914;2023-03-26T14:31:14;97383.59;;;12.81;72.70
18678;BME280;9469;51.114;13.914;2023-03-26T14:36:49;97386.41;;;11.82;77.09
18678;BME280;9469;51.114;13.914;2023-03-26T14:42:07;97384.25;;;11.88;75.50
18678;BME280;9469;51.114;13.914;2023-03-26T14:47:17;97381.31;;;11.77;76.81
18678;BME280;9469;51.114;13.914;2023-03-26T14:52:32;97387.59;;;11.45;79.99
18678;BME280;9469;51.114;13.914;2023-03-26T15:03:36;97381.25;;;11.10;87.00
18678;BME280;9469;51.114;13.914;2023-03-26T15:20:39;97381.13;;;10.46;95.62
18678;BME280;9469;51.114;13.914;2023-03-26T15:26:08;97382.31;;;10.36;99.14
18678;BME280;9469;51.114;13.914;2023-03-26T15:31:52;97384.25;;;10.60;100.00
18678;BME280;9469;51.114;13.914;2023-03-26T15:37:34;97382.84;;;10.30;100.00
18678;BME280;9469;51.114;13.914;2023-03-26T15:42:54;97376.63;;;9.81;100.00
18678;BME280;9469;51.114;13.914;2023-03-26T15:48:28;97384.63;;;10.26;100.00
18678;BME280;9469;51.114;13.914;2023-03-26T15:53:45;97383.53;;;10.39;100.00
18678;BME280;9469;51.114;13.914;2023-03-26T15:58:56;97382.31;;;10.24;100.00
18678;BME280;9469;51.114;13.914;2023-03-26T16:04:20;97378.22;;;10.27;100.00
18678;BME280;9469;51.114;13.914;2023-03-26T16:09:46;97379.28;;;9.93;100.00
18678;BME280;9469;51.114;13.914;2023-03-26T16:15:14;97382.00;;;10.05;100.00
18678;BME280;9469;51.114;13.914;2023-03-26T16:20:28;97387.44;;;10.08;100.00
18678;BME280;9469;51.114;13.914;2023-03-26T16:25:52;97385.53;;;10.09;100.00
18678;BME280;9469;51.114;13.914;2023-03-26T16:31:28;97394.63;;;9.55;100.00
18678;BME280;9469;51.114;13.914;2023-03-26T16:36:46;97390.06;;;9.96;100.00
18678;BME280;9469;51.114;13.914;2023-03-26T16:41:59;97396.25;;;9.68;100.00
18678;BME280;9469;51.114;13.914;2023-03-26T16:47:17;97392.75;;;9.34;100.00
18678;BME280;9469;51.114;13.914;2023-03-26T16:52:37;97391.44;;;8.99;100.00
18678;BME280;9469;51.114;13.914;2023-03-26T16:57:53;97396.03;;;9.11;100.00
18678;BME280;9469;51.114;13.914;2023-03-26T17:03:16;97392.34;;;9.03;100.00
18678;BME280;9469;51.114;13.914;2023-03-26T17:08:38;97395.09;;;9.36;100.00
18678;BME280;9469;51.114;13.914;2023-03-26T17:13:57;97403.06;;;9.07;100.00
18678;BME280;9469;51.114;13.914;2023-03-26T17:19:19;97408.69;;;8.76;100.00
18678;BME280;9469;51.114;13.914;2023-03-26T17:24:38;97409.19;;;9.28;100.00
18678;BME280;9469;51.114;13.914;2023-03-26T17:30:50;97412.88;;;9.15;100.00
18678;BME280;9469;51.114;13.914;2023-03-26T17:36:27;97411.06;;;8.98;100.00
18678;BME280;9469;51.114;13.914;2023-03-26T17:41:59;97412.97;;;9.27;100.00
18678;BME280;9469;51.114;13.914;2023-03-26T17:47:21;97413.81;;;8.81;100.00
18678;BME280;9469;51.114;13.914;2023-03-26T17:52:36;97410.72;;;9.08;100.00
18678;BME280;9469;51.114;13.914;2023-03-26T17:57:52;97409.44;;;8.85;100.00
18678;BME280;9469;51.114;13.914;2023-03-26T18:03:11;97419.94;;;8.73;100.00
18678;BME280;9469;51.114;13.914;2023-03-26T18:08:39;97404.03;;;9.31;100.00
18678;BME280;9469;51.114;13.914;2023-03-26T18:19:45;97420.88;;;9.06;100.00
18678;BME280;9469;51.114;13.914;2023-03-26T18:24:54;97419.81;;;8.70;100.00
18678;BME280;9469;51.114;13.914;2023-03-26T18:30:13;97424.81;;;8.62;100.00
18678;BME280;9469;51.114;13.914;2023-03-26T18:35:24;97425.22;;;8.82;100.00
18678;BME280;9469;51.114;13.914;2023-03-26T18:40:39;97424.09;;;8.45;100.00
18678;BME280;9469;51.114;13.914;2023-03-26T18:45:47;97429.41;;;8.45;100.00
18678;BME280;9469;51.114;13.914;2023-03-26T18:51:00;97420.34;;;8.46;100.00
18678;BME280;9469;51.114;13.914;2023-03-26T18:56:26;97425.88;;;8.70;100.00
18678;BME280;9469;51.114;13.914;2023-03-26T19:01:35;97417.94;;;8.70;100.00
18678;BME280;9469;51.114;13.914;2023-03-26T19:06:51;97416.41;;;8.60;100.00
18678;BME280;9469;51.114;13.914;2023-03-26T19:12:04;97420.03;;;8.47;100.00
18678;BME280;9469;51.114;13.914;2023-03-26T19:17:10;97411.97;;;8.35;100.00
18678;BME280;9469;51.114;13.914;2023-03-26T19:22:22;97409.56;;;8.51;100.00
18678;BME280;9469;51.114;13.914;2023-03-26T19:27:29;97406.00;;;8.47;100.00
18678;BME280;9469;51.114;13.914;2023-03-26T19:32:34;97393.50;;;8.56;100.00
18678;BME280;9469;51.114;13.914;2023-03-26T19:37:51;97392.50;;;8.31;100.00
18678;BME280;9469;51.114;13.914;2023-03-26T19:42:58;97393.88;;;8.37;100.00
18678;BME280;9469;51.114;13.914;2023-03-26T19:48:06;97389.13;;;8.60;100.00
18678;BME280;9469;51.114;13.914;2023-03-26T19:53:22;97377.72;;;8.68;100.00
18678;BME280;9469;51.114;13.914;2023-03-26T19:58:31;97369.25;;;8.37;100.00
18678;BME280;9469;51.114;13.914;2023-03-26T20:03:38;97363.06;;;8.16;100.00
18678;BME280;9469;51.114;13.914;2023-03-26T20:08:48;97358.09;;;8.06;100.00
18678;BME280;9469;51.114;13.914;2023-03-26T20:13:54;97351.56;;;8.12;100.00
18678;BME280;9469;51.114;13.914;2023-03-26T20:18:59;97346.13;;;8.00;100.00
18678;BME280;9469;51.114;13.914;2023-03-26T20:24:13;97329.31;;;7.95;100.00
18678;BME280;9469;51.114;13.914;2023-03-26T20:29:18;97337.59;;;7.85;100.00
18678;BME280;9469;51.114;13.914;2023-03-26T20:34:24;97329.34;;;7.78;100.00
18678;BME280;9469;51.114;13.914;2023-03-26T20:39:32;97330.00;;;7.67;100.00
18678;BME280;9469;51.114;13.914;2023-03-26T20:44:37;97327.34;;;7.75;100.00
18678;BME280;9469;51.114;13.914;2023-03-26T20:49:43;97327.94;;;7.89;100.00
18678;BME280;9469;51.114;13.914;2023-03-26T20:54:50;97315.50;;;7.81;100.00
18678;BME280;9469;51.114;13.914;2023-03-26T20:59:55;97321.13;;;7.71;100.00
18678;BME280;9469;51.114;13.914;2023-03-26T21:05:00;97318.47;;;7.63;100.00
18678;BME280;9469;51.114;13.914;2023-03-26T21:10:10;97311.31;;;7.72;100.00
18678;BME280;9469;51.114;13.914;2023-03-26T21:15:17;97317.53;;;7.76;100.00
18678;BME280;9469;51.114;13.914;2023-03-26T21:20:25;97309.72;;;7.88;100.00
18678;BME280;9469;51.114;13.914;2023-03-26T21:25:40;97312.44;;;8.17;100.00
18678;BME280;9469;51.114;13.914;2023-03-26T21:30:52;97311.50;;;8.13;100.00
18678;BME280;9469;51.114;13.914;2023-03-26T21:35:58;97310.53;;;7.71;100.00
18678;BME280;9469;51.114;13.914;2023-03-26T21:41:18;97314.88;;;7.84;100.00
18678;BME280;9469;51.114;13.914;2023-03-26T21:46:28;97336.09;;;8.22;100.00
18678;BME280;9469;51.114;13.914;2023-03-26T21:51:34;97339.94;;;8.42;100.00
18678;BME280;9469;51.114;13.914;2023-03-26T21:56:46;97340.78;;;8.25;100.00
18678;BME280;9469;51.114;13.914;2023-03-26T22:01:58;97350.53;;;8.42;100.00
18678;BME280;9469;51.114;13.914;2023-03-26T22:07:12;97364.41;;;8.47;100.00
18678;BME280;9469;51.114;13.914;2023-03-26T22:12:23;97375.50;;;8.41;100.00
18678;BME280;9469;51.114;13.914;2023-03-26T22:17:28;97370.84;;;8.21;100.00
18678;BME280;9469;51.114;13.914;2023-03-26T22:22:33;97376.84;;;8.47;100.00
18678;BME280;9469;51.114;13.914;2023-03-26T22:27:41;97369.44;;;8.32;100.00
18678;BME280;9469;51.114;13.914;2023-03-26T22:32:47;97355.03;;;8.50;100.00
18678;BME280;9469;51.114;13.914;2023-03-26T22:37:53;97356.97;;;8.24;100.00
18678;BME280;9469;51.114;13.914;2023-03-26T22:43:04;97366.94;;;8.35;100.00
18678;BME280;9469;51.114;13.914;2023-03-26T22:48:10;97362.16;;;8.12;100.00
18678;BME280;9469;51.114;13.914;2023-03-26T22:53:15;97358.22;;;8.26;100.00
18678;BME280;9469;51.114;13.914;2023-03-26T22:58:22;97360.59;;;8.11;100.00
18678;BME280;9469;51.114;13.914;2023-03-26T23:03:28;97357.31;;;8.05;100.00
18678;BME280;9469;51.114;13.914;2023-03-26T23:08:36;97355.72;;;8.21;100.00
18678;BME280;9469;51.114;13.914;2023-03-26T23:13:48;97363.81;;;8.25;100.00
18678;BME280;9469;51.114;13.914;2023-03-26T23:18:53;97365.28;;;7.96;100.00
18678;BME280;9469;51.114;13.914;2023-03-26T23:23:59;97373.72;;;7.81;100.00
18678;BME280;9469;51.114;13.914;2023-03-26T23:29:08;97374.38;;;7.61;100.00
18678;BME280;9469;51.114;13.914;2023-03-26T23:34:14;97374.69;;;7.60;100.00
18678;BME280;9469;51.114;13.914;2023-03-26T23:39:21;97380.75;;;7.43;100.00
18678;BME280;9469;51.114;13.914;2023-03-26T23:44:30;97374.97;;;7.67;100.00
18678;BME280;9469;51.114;13.914;2023-03-26T23:49:35;97379.81;;;7.73;100.00
18678;BME280;9469;51.114;13.914;2023-03-26T23:54:40;97374.16;;;8.01;100.00
18678;BME280;9469;51.114;13.914;2023-03-26T23:59:49;97384.94;;;7.95;100.00
